Time;durP1;ratioP1;P1;durP2;ratioP2;P2;SDS_P1;SDS_P2;PMS_P1;PMS_P2;Temp;Humidity;BMP_temperature;BMP_pressure;BME280_temperature;BME280_humidity;BME280_pressure;Samples;Min_cycle;Max_cycle;Signal;HPM_P1;HPM_P2
2022/04/22 00:00:30;;;;;;;3.67;2.05;;;15.40;34.00;;;;;;2572536;52;20976;-85
2022/04/22 00:03:00;;;;;;;4.07;2.00;;;15.30;33.90;;;;;;2596724;53;20975;-85
2022/04/22 00:05:26;;;;;;;4.78;2.90;;;15.30;34.00;;;;;;2592655;53;20971;-85
2022/04/22 00:07:52;;;;;;;3.42;2.12;;;15.20;34.00;;;;;;2596201;53;20926;-85
2022/04/22 00:10:18;;;;;;;3.92;2.33;;;15.10;34.00;;;;;;2342765;53;20947;-85
2022/04/22 00:12:45;;;;;;;3.90;2.35;;;15.10;34.00;;;;;;2583111;52;20908;-85
2022/04/22 00:15:13;;;;;;;3.30;1.95;;;15.00;33.90;;;;;;2596537;53;20936;-84
2022/04/22 00:17:41;;;;;;;2.83;1.80;;;14.90;34.00;;;;;;2596324;53;21507;-84
2022/04/22 00:20:12;;;;;;;3.87;2.40;;;14.80;34.00;;;;;;2351176;54;21003;-85
2022/04/22 00:22:42;;;;;;;3.87;1.95;;;14.80;34.20;;;;;;2596890;53;20956;-85
2022/04/22 00:25:09;;;;;;;3.28;2.08;;;14.70;34.20;;;;;;2597510;53;20967;-85
2022/04/22 00:27:37;;;;;;;3.30;2.08;;;14.70;34.30;;;;;;2597044;53;21736;-84
2022/04/22 00:30:07;;;;;;;3.00;1.58;;;14.60;34.30;;;;;;2351559;54;20987;-84
2022/04/22 00:32:34;;;;;;;3.55;1.95;;;14.50;34.40;;;;;;2597329;53;21738;-85
2022/04/22 00:35:04;;;;;;;3.05;1.83;;;14.40;34.30;;;;;;2597367;53;21003;-85
2022/04/22 00:37:30;;;;;;;3.33;1.83;;;14.30;34.40;;;;;;2596961;53;20969;-85
2022/04/22 00:39:56;;;;;;;6.80;2.37;;;14.30;34.50;;;;;;2351084;54;21005;-85
2022/04/22 00:42:23;;;;;;;3.53;2.15;;;14.30;34.60;;;;;;2347563;53;20941;-85
2022/04/22 00:44:52;;;;;;;3.10;1.62;;;14.20;34.60;;;;;;2350907;53;21461;-85
2022/04/22 00:47:18;;;;;;;3.42;1.83;;;14.10;34.60;;;;;;2352181;54;20924;-86
2022/04/22 00:49:45;;;;;;;3.05;1.60;;;14.10;34.70;;;;;;2351975;54;21008;-85
2022/04/22 00:52:12;;;;;;;2.97;1.75;;;14.00;34.70;;;;;;2597178;53;20938;-86
2022/04/22 00:54:38;;;;;;;3.05;1.58;;;13.90;34.80;;;;;;2596831;53;20920;-85
2022/04/22 00:57:05;;;;;;;2.95;1.60;;;13.90;34.90;;;;;;2351823;54;21015;-84
2022/04/22 00:59:33;;;;;;;3.58;1.87;;;13.80;34.80;;;;;;2597229;53;20928;-85
2022/04/22 01:01:59;;;;;;;3.05;1.67;;;13.80;35.00;;;;;;2597357;53;20999;-85
2022/04/22 01:12:14;;;;;;;2.72;1.40;;;13.60;34.90;;;;;;2352054;54;20888;-85
2022/04/22 01:14:41;;;;;;;3.17;1.58;;;13.50;35.00;;;;;;2352536;54;20955;-84
2022/04/22 01:17:08;;;;;;;3.50;1.80;;;13.40;35.10;;;;;;2593773;53;21887;-85
2022/04/22 01:19:34;;;;;;;3.20;1.65;;;13.40;35.30;;;;;;2571134;52;20916;-84
2022/04/22 01:22:01;;;;;;;3.35;1.73;;;13.30;35.40;;;;;;2597660;53;21404;-84
2022/04/22 01:24:28;;;;;;;2.90;1.60;;;13.20;35.40;;;;;;2352048;54;21089;-85
2022/04/22 01:26:55;;;;;;;3.67;1.73;;;13.10;35.50;;;;;;2351705;54;20900;-85
2022/04/22 01:29:21;;;;;;;2.90;1.48;;;13.10;35.70;;;;;;2353107;54;21015;-84
2022/04/22 01:31:48;;;;;;;2.92;1.73;;;13.00;35.70;;;;;;2352149;54;20936;-85
2022/04/22 01:34:14;;;;;;;3.00;1.50;;;13.00;35.80;;;;;;2598085;53;20940;-85
2022/04/22 01:36:41;;;;;;;2.47;1.35;;;12.90;36.50;;;;;;2351998;54;20932;-85
2022/04/22 01:39:07;;;;;;;3.28;1.52;;;12.90;35.90;;;;;;2352425;54;20939;-84
2022/04/22 01:41:33;;;;;;;3.65;1.70;;;12.80;35.90;;;;;;2597632;53;21442;-84
2022/04/22 01:43:59;;;;;;;4.05;1.60;;;12.80;36.00;;;;;;2351946;54;20908;-84
2022/04/22 01:46:26;;;;;;;2.90;1.62;;;12.70;36.00;;;;;;2597914;53;20892;-84
2022/04/22 01:48:53;;;;;;;3.67;1.75;;;12.70;36.10;;;;;;2597572;53;20936;-84
2022/04/22 01:51:19;;;;;;;4.25;1.60;;;12.60;36.10;;;;;;2597992;53;20952;-84
2022/04/22 01:53:45;;;;;;;3.72;1.67;;;12.60;36.20;;;;;;2352338;54;21027;-85
2022/04/22 01:56:12;;;;;;;2.97;1.52;;;12.50;36.20;;;;;;2597239;53;20955;-85
2022/04/22 01:58:39;;;;;;;2.65;1.40;;;12.40;36.30;;;;;;2352324;54;20979;-84
2022/04/22 02:01:05;;;;;;;2.97;1.50;;;12.40;36.50;;;;;;2333804;53;21832;-86
2022/04/22 02:03:32;;;;;;;4.55;1.62;;;12.30;36.50;;;;;;2567015;53;21534;-84
2022/04/22 02:05:59;;;;;;;2.80;1.42;;;12.30;36.60;;;;;;2596103;53;20991;-86
2022/04/22 02:08:25;;;;;;;3.10;1.67;;;12.20;36.70;;;;;;2336281;53;21266;-85
2022/04/22 02:10:51;;;;;;;2.50;1.30;;;12.10;36.70;;;;;;2597029;52;20916;-85
2022/04/22 02:13:18;;;;;;;2.60;1.35;;;12.10;36.80;;;;;;2599823;53;20941;-86
2022/04/22 02:15:44;;;;;;;2.92;1.58;;;12.00;36.70;;;;;;2599437;53;20944;-86
2022/04/22 02:18:10;;;;;;;3.05;1.58;;;12.00;37.10;;;;;;2352207;54;21622;-85
2022/04/22 02:20:37;;;;;;;3.17;1.55;;;11.90;37.10;;;;;;2596796;53;20959;-85
2022/04/22 02:23:04;;;;;;;3.12;1.83;;;11.90;37.10;;;;;;2595899;53;20964;-84
2022/04/22 02:25:30;;;;;;;3.03;1.67;;;11.80;37.20;;;;;;2596241;53;20944;-85
2022/04/22 02:30:41;;;;;;;2.83;1.50;;;11.70;37.40;;;;;;2589965;52;20941;-86
2022/04/22 02:33:08;;;;;;;3.22;1.50;;;11.70;37.50;;;;;;2597624;53;21763;-84
2022/04/22 02:35:34;;;;;;;3.35;1.52;;;11.60;37.50;;;;;;2331537;53;21477;-85
2022/04/22 02:38:01;;;;;;;2.97;1.50;;;11.50;37.50;;;;;;2597416;53;20939;-85
2022/04/22 02:45:56;;;;;;;3.17;1.80;;;11.40;37.80;;;;;;2332777;53;20942;-85
2022/04/22 02:48:23;;;;;;;3.33;1.70;;;11.40;37.80;;;;;;2352022;54;21079;-85
2022/04/22 02:50:49;;;;;;;2.78;1.50;;;11.30;37.80;;;;;;2597791;53;20984;-84
2022/04/22 02:53:16;;;;;;;2.85;1.50;;;11.30;37.90;;;;;;2597231;53;21536;-85
2022/04/22 02:55:53;;;;;;;2.97;1.55;;;11.30;37.90;;;;;;2597347;53;20996;-85
2022/04/22 02:58:27;;;;;;;3.20;1.70;;;11.20;38.00;;;;;;2569594;52;20939;-84
2022/04/22 03:00:54;;;;;;;3.12;1.60;;;11.10;37.80;;;;;;2598075;53;20936;-84
2022/04/22 03:03:20;;;;;;;5.15;1.60;;;11.10;37.90;;;;;;2569559;52;20991;-84
2022/04/22 03:05:46;;;;;;;3.25;1.83;;;11.00;38.00;;;;;;2351887;54;20905;-85
2022/04/22 03:08:13;;;;;;;2.22;1.20;;;11.00;38.10;;;;;;2352458;54;20916;-85
2022/04/22 03:10:40;;;;;;;3.47;1.65;;;10.90;38.10;;;;;;2578328;52;20935;-84
2022/04/22 03:13:06;;;;;;;2.75;1.48;;;10.80;38.00;;;;;;2589005;53;21161;-84
2022/04/22 03:15:33;;;;;;;2.62;1.52;;;10.80;38.10;;;;;;2332935;53;20939;-84
2022/04/22 03:18:00;;;;;;;3.20;1.50;;;10.80;38.10;;;;;;2597579;53;20972;-84
2022/04/22 03:20:26;;;;;;;3.22;1.50;;;10.70;38.20;;;;;;2350437;54;20951;-85
2022/04/22 03:22:53;;;;;;;2.67;1.40;;;10.60;38.30;;;;;;2595578;53;21048;-85
2022/04/22 03:25:20;;;;;;;3.50;1.70;;;10.60;38.50;;;;;;2350485;54;21612;-86
2022/04/22 03:27:47;;;;;;;3.15;1.80;;;10.50;38.50;;;;;;2332885;53;20959;-85
2022/04/22 03:30:13;;;;;;;3.60;1.98;;;10.50;38.50;;;;;;2352249;54;21004;-85
2022/04/22 03:32:40;;;;;;;3.15;1.65;;;10.40;38.40;;;;;;2334245;53;21040;-84
2022/04/22 03:35:07;;;;;;;4.20;2.15;;;10.40;38.50;;;;;;2350221;53;20923;-84
2022/04/22 03:37:33;;;;;;;3.80;2.20;;;10.30;38.60;;;;;;2596989;53;20912;-84
2022/04/22 03:40:00;;;;;;;3.70;2.05;;;10.20;38.60;;;;;;2597618;53;21431;-84
2022/04/22 03:42:28;;;;;;;3.20;1.73;;;10.20;38.60;;;;;;2592812;53;21007;-84
2022/04/22 03:44:58;;;;;;;3.75;2.15;;;10.10;38.50;;;;;;2597450;53;20996;-84
2022/04/22 03:47:25;;;;;;;2.90;1.37;;;10.10;38.60;;;;;;2597632;53;21007;-84
2022/04/22 03:49:51;;;;;;;2.70;1.50;;;10.00;38.60;;;;;;2588620;53;20927;-85
2022/04/22 03:52:18;;;;;;;2.78;1.50;;;9.90;39.50;;;;;;2576686;53;20983;-84
2022/04/22 03:54:44;;;;;;;3.53;1.87;;;9.90;39.60;;;;;;2320663;53;21429;-84
2022/04/22 03:59:55;;;;;;;3.97;1.90;;;9.80;39.80;;;;;;2583472;53;20923;-84
2022/04/22 04:02:22;;;;;;;2.83;1.52;;;9.80;39.90;;;;;;2583357;53;21931;-84
2022/04/22 04:04:50;;;;;;;4.72;1.55;;;9.70;40.00;;;;;;2578333;53;21136;-84
2022/04/22 04:07:17;;;;;;;2.65;1.40;;;9.70;40.10;;;;;;2321370;53;20975;-84
2022/04/22 04:18:09;;;;;;;3.20;1.73;;;9.50;40.20;;;;;;2583628;53;20935;-84
2022/04/22 04:23:21;;;;;;;2.80;1.60;;;9.50;40.40;;;;;;2583664;53;20932;-85
2022/04/22 04:25:54;;;;;;;2.95;1.77;;;9.40;40.40;;;;;;2584685;53;20968;-84
2022/04/22 04:28:23;;;;;;;3.00;1.37;;;9.40;40.50;;;;;;2583004;53;20960;-84
2022/04/22 04:30:49;;;;;;;3.08;1.50;;;9.40;40.50;;;;;;2559127;52;20939;-85
2022/04/22 04:33:16;;;;;;;2.70;1.30;;;9.30;40.50;;;;;;2577636;52;22295;-84
2022/04/22 04:35:46;;;;;;;2.90;1.62;;;9.30;40.60;;;;;;2557899;52;21011;-86
2022/04/22 04:38:27;;;;;;;3.12;1.52;;;9.20;40.60;;;;;;2561326;52;21024;-84
2022/04/22 04:40:54;;;;;;;4.70;1.95;;;9.20;40.90;;;;;;2572351;52;22154;-84
2022/04/22 04:43:28;;;;;;;4.62;1.70;;;9.20;40.80;;;;;;2571379;52;20932;-84
2022/04/22 04:45:54;;;;;;;3.83;1.75;;;9.10;40.70;;;;;;2584224;53;21047;-87
2022/04/22 04:48:22;;;;;;;3.65;1.77;;;9.10;40.90;;;;;;2585195;53;20987;-86
2022/04/22 04:50:51;;;;;;;3.40;2.03;;;9.10;41.10;;;;;;2584620;53;21035;-84
2022/04/22 04:53:18;;;;;;;4.00;2.17;;;9.00;41.10;;;;;;2583346;53;20975;-84
2022/04/22 04:55:44;;;;;;;3.08;1.55;;;9.00;41.20;;;;;;2583658;53;20940;-84
2022/04/22 04:58:11;;;;;;;3.67;1.87;;;9.00;41.30;;;;;;2559524;52;21016;-84
2022/04/22 05:00:37;;;;;;;3.22;1.60;;;8.90;41.20;;;;;;2580012;52;20968;-85
2022/04/22 05:03:04;;;;;;;3.12;1.40;;;8.90;41.20;;;;;;2582126;53;20932;-85
2022/04/22 05:05:31;;;;;;;3.05;1.45;;;8.90;41.30;;;;;;2556656;52;20920;-84
2022/04/22 05:07:59;;;;;;;3.20;1.75;;;8.90;41.40;;;;;;2583168;53;21084;-85
2022/04/22 05:10:28;;;;;;;2.85;1.60;;;8.90;41.60;;;;;;2340073;54;20936;-83
2022/04/22 05:12:55;;;;;;;2.70;1.50;;;8.90;41.70;;;;;;2549460;53;21339;-84
2022/04/22 05:15:22;;;;;;;3.08;1.73;;;8.90;41.80;;;;;;2327032;54;21907;-84
2022/04/22 05:17:49;;;;;;;3.60;2.08;;;8.90;41.90;;;;;;2571930;52;21018;-84
2022/04/22 05:20:17;;;;;;;3.47;1.58;;;8.90;42.10;;;;;;2574353;52;21047;-87
2022/04/22 05:22:44;;;;;;;3.22;1.70;;;8.90;42.20;;;;;;2343020;53;21029;-84
2022/04/22 05:25:11;;;;;;;3.47;2.08;;;8.90;42.30;;;;;;2577087;53;21824;-84
2022/04/22 05:27:38;;;;;;;3.97;1.80;;;9.00;42.60;;;;;;2568900;53;21504;-83
2022/04/22 05:32:51;;;;;;;4.53;1.92;;;9.00;42.80;;;;;;2584298;53;20908;-86
2022/04/22 05:35:19;;;;;;;3.80;2.00;;;9.10;42.90;;;;;;2584111;53;21959;-84
2022/04/22 05:37:48;;;;;;;3.72;2.00;;;9.10;43.10;;;;;;2584103;53;20924;-87
2022/04/22 05:40:16;;;;;;;4.60;2.45;;;9.10;43.40;;;;;;2584562;53;20908;-85
2022/04/22 05:42:46;;;;;;;4.03;2.20;;;9.10;43.40;;;;;;2582107;53;22110;-84
2022/04/22 05:45:13;;;;;;;4.03;1.67;;;9.20;43.50;;;;;;2582737;53;20924;-83
2022/04/22 05:47:40;;;;;;;4.60;2.50;;;9.30;43.60;;;;;;2582208;53;20942;-83
2022/04/22 05:50:10;;;;;;;4.85;2.58;;;9.30;43.60;;;;;;2583151;53;20973;-85
2022/04/22 05:52:37;;;;;;;4.00;2.28;;;9.40;43.80;;;;;;2582309;53;22115;-84
2022/04/22 05:55:06;;;;;;;5.62;2.70;;;9.40;43.80;;;;;;2583074;53;21039;-83
2022/04/22 05:57:33;;;;;;;5.60;2.90;;;9.50;43.90;;;;;;2583359;53;20987;-84
2022/04/22 06:00:02;;;;;;;3.95;2.45;;;9.60;44.10;;;;;;2582518;53;21324;-84
2022/04/22 06:02:31;;;;;;;4.25;2.40;;;9.60;44.20;;;;;;2582368;53;22050;-83
2022/04/22 06:04:57;;;;;;;5.10;2.50;;;9.70;44.30;;;;;;2339012;54;22133;-84
2022/04/22 06:07:24;;;;;;;4.05;2.30;;;9.80;44.50;;;;;;2583027;53;22034;-85
2022/04/22 06:12:38;;;;;;;4.87;2.42;;;9.90;44.70;;;;;;2528445;53;20987;-84
2022/04/22 06:15:05;;;;;;;5.12;2.47;;;10.00;43.70;;;;;;2559258;52;21075;-84
2022/04/22 06:17:31;;;;;;;5.28;3.00;;;10.10;43.80;;;;;;2582495;53;20912;-86
2022/04/22 06:19:58;;;;;;;4.75;2.90;;;10.20;43.90;;;;;;2322288;53;21010;-84
2022/04/22 06:22:26;;;;;;;5.00;3.15;;;10.20;44.00;;;;;;2578124;52;20995;-84
2022/04/22 06:24:54;;;;;;;5.25;2.92;;;10.30;44.20;;;;;;2582239;53;21908;-85
2022/04/22 06:27:34;;;;;;;5.70;3.10;;;10.40;44.20;;;;;;2574385;52;21070;-85
2022/04/22 06:30:06;;;;;;;5.97;3.62;;;10.50;44.70;;;;;;2579485;52;20960;-84
2022/04/22 06:32:32;;;;;;;5.45;3.17;;;10.60;44.50;;;;;;2581750;53;20920;-84
2022/04/22 06:35:05;;;;;;;5.55;3.30;;;10.70;44.50;;;;;;2581881;53;20983;-85
2022/04/22 06:37:53;;;;;;;5.78;3.50;;;10.80;44.60;;;;;;2581868;53;21003;-85
2022/04/22 06:45:51;;;;;;;6.55;4.28;;;11.10;44.80;;;;;;2582189;53;20972;-84
2022/04/22 06:48:26;;;;;;;6.97;4.43;;;11.20;45.00;;;;;;2338896;54;21026;-85
2022/04/22 06:51:10;;;;;;;6.82;4.30;;;11.40;45.30;;;;;;2554577;52;21947;-86
2022/04/22 06:53:37;;;;;;;7.32;4.57;;;11.50;45.50;;;;;;2581299;53;20900;-85
2022/04/22 06:56:06;;;;;;;7.37;4.75;;;11.70;46.00;;;;;;2582583;53;20956;-86
2022/04/22 06:58:37;;;;;;;6.87;4.53;;;12.00;46.90;;;;;;2581712;53;21906;-84
2022/04/22 07:01:04;;;;;;;6.95;4.60;;;12.40;47.60;;;;;;2581837;53;20932;-84
2022/04/22 07:03:43;;;;;;;7.37;4.65;;;12.80;48.10;;;;;;2317972;54;21375;-84
2022/04/22 07:06:09;;;;;;;6.43;3.92;;;13.30;48.40;;;;;;2570501;52;20971;-85
2022/04/22 07:08:36;;;;;;;6.93;4.70;;;13.70;48.90;;;;;;2565032;52;20928;-84
2022/04/22 07:11:03;;;;;;;8.55;5.80;;;14.20;48.20;;;;;;2581277;53;21064;-84
2022/04/22 07:13:29;;;;;;;8.07;5.37;;;14.60;47.80;;;;;;2581714;53;21031;-85
2022/04/22 07:15:56;;;;;;;8.35;5.43;;;15.00;48.00;;;;;;2581082;53;21090;-84
2022/04/22 07:18:23;;;;;;;8.05;4.85;;;15.50;48.10;;;;;;2582473;53;20931;-84
2022/04/22 07:20:51;;;;;;;7.70;5.10;;;16.00;48.00;;;;;;2330372;53;20956;-85
2022/04/22 07:23:18;;;;;;;7.00;4.70;;;16.40;47.80;;;;;;2581122;52;20975;-84
2022/04/22 07:25:46;;;;;;;6.70;5.03;;;16.80;47.60;;;;;;2582215;53;20924;-83
2022/04/22 07:28:13;;;;;;;7.68;4.57;;;17.20;47.10;;;;;;2338530;54;21082;-84
2022/04/22 07:30:43;;;;;;;7.90;5.68;;;17.70;46.60;;;;;;2582254;53;20952;-83
2022/04/22 07:33:12;;;;;;;6.72;4.85;;;18.00;46.10;;;;;;2581594;53;20943;-82
2022/04/22 07:35:39;;;;;;;6.30;4.35;;;18.30;46.00;;;;;;2556901;52;20983;-83
2022/04/22 07:38:06;;;;;;;6.30;4.43;;;18.60;45.70;;;;;;2575797;52;20999;-85
2022/04/22 07:40:34;;;;;;;6.45;4.70;;;19.00;45.50;;;;;;2556638;52;22170;-82
2022/04/22 07:48:33;;;;;;;6.60;4.53;;;19.70;44.00;;;;;;2565771;52;20988;-82
2022/04/22 07:50:59;;;;;;;9.95;5.18;;;19.80;42.90;;;;;;2568245;52;21042;-82
2022/04/22 07:53:27;;;;;;;8.00;5.45;;;19.70;41.90;;;;;;2566762;52;20990;-83
2022/04/22 07:55:53;;;;;;;6.30;4.57;;;19.60;41.80;;;;;;2566774;52;22209;-84
2022/04/22 07:58:20;;;;;;;7.65;4.90;;;19.40;40.60;;;;;;2580655;53;20955;-82
2022/04/22 08:00:47;;;;;;;7.15;5.03;;;19.40;40.50;;;;;;2580880;53;21023;-83
2022/04/22 08:03:15;;;;;;;7.03;4.85;;;19.10;40.30;;;;;;2580412;53;20971;-83
2022/04/22 08:05:41;;;;;;;8.25;5.75;;;18.90;41.00;;;;;;2579659;53;21012;-84
2022/04/22 08:08:09;;;;;;;7.80;5.57;;;18.70;40.40;;;;;;2570680;52;20963;-83
2022/04/22 08:10:35;;;;;;;8.10;5.75;;;18.60;40.50;;;;;;2576661;52;20992;-85
2022/04/22 08:13:03;;;;;;;9.50;5.75;;;18.50;40.50;;;;;;2557750;52;20935;-84
2022/04/22 08:15:30;;;;;;;8.55;6.03;;;18.40;40.80;;;;;;2332788;53;20932;-84
2022/04/22 08:17:56;;;;;;;9.13;5.90;;;18.50;41.20;;;;;;2576232;53;20986;-85
2022/04/22 08:20:23;;;;;;;7.28;5.53;;;18.50;41.50;;;;;;2344253;53;22062;-84
2022/04/22 08:22:50;;;;;;;7.00;4.95;;;18.70;41.80;;;;;;2577628;53;20932;-84
2022/04/22 08:25:17;;;;;;;7.60;4.43;;;18.80;41.80;;;;;;2575814;53;20940;-83
2022/04/22 08:27:46;;;;;;;6.62;4.65;;;18.90;41.80;;;;;;2579546;53;20991;-86
2022/04/22 08:30:13;;;;;;;7.95;5.00;;;19.10;42.00;;;;;;2578127;53;20936;-83
2022/04/22 08:32:39;;;;;;;6.50;4.65;;;19.30;42.00;;;;;;2580658;53;20983;-83
2022/04/22 08:35:08;;;;;;;7.57;5.43;;;19.40;41.80;;;;;;2581219;53;20995;-83
2022/04/22 08:37:36;;;;;;;6.50;5.00;;;19.50;41.60;;;;;;2581411;53;20940;-84
2022/04/22 08:40:05;;;;;;;8.02;5.95;;;19.70;41.40;;;;;;2553450;53;22034;-83
2022/04/22 08:42:34;;;;;;;7.50;5.18;;;19.70;41.00;;;;;;2579572;53;20920;-83
2022/04/22 08:45:02;;;;;;;6.87;5.32;;;19.80;40.90;;;;;;2581170;53;20940;-83
2022/04/22 08:50:16;;;;;;;7.95;5.72;;;19.80;40.40;;;;;;2581276;53;20988;-83
2022/04/22 08:52:49;;;;;;;8.30;5.97;;;19.70;40.30;;;;;;2327043;53;21026;-84
2022/04/22 08:55:15;;;;;;;7.37;5.15;;;19.70;40.30;;;;;;2325443;53;21415;-83
2022/04/22 08:57:42;;;;;;;7.87;5.50;;;19.70;40.40;;;;;;2575514;52;21000;-83
2022/04/22 09:00:09;;;;;;;8.88;6.15;;;19.70;40.50;;;;;;2581539;53;20971;-82
2022/04/22 09:02:35;;;;;;;8.27;6.00;;;19.70;40.50;;;;;;2580831;53;20924;-83
2022/04/22 09:05:02;;;;;;;8.52;5.82;;;19.80;40.80;;;;;;2562006;52;20951;-83
2022/04/22 09:07:29;;;;;;;7.97;5.85;;;19.90;41.00;;;;;;2547651;52;20960;-83
2022/04/22 09:09:55;;;;;;;7.45;5.10;;;20.00;40.80;;;;;;2576230;52;20931;-82
2022/04/22 09:12:23;;;;;;;8.52;6.47;;;20.10;40.60;;;;;;2580145;53;21113;-84
2022/04/22 09:14:52;;;;;;;7.78;6.10;;;20.10;40.40;;;;;;2338805;54;20932;-83
2022/04/22 09:17:29;;;;;;;9.20;6.20;;;20.30;40.40;;;;;;2580143;53;20937;-83
2022/04/22 09:19:57;;;;;;;7.47;5.87;;;20.50;40.20;;;;;;2554147;52;20931;-84
2022/04/22 09:22:24;;;;;;;8.25;5.47;;;20.40;40.00;;;;;;2333205;53;21408;-85
2022/04/22 09:24:59;;;;;;;9.15;5.72;;;20.50;39.90;;;;;;2561699;52;20959;-85
2022/04/22 09:28:28;;;;;;;6.87;4.80;;;20.50;40.00;;;;;;2322857;53;21926;-83
2022/04/22 09:31:04;;;;;;;6.87;5.18;;;20.60;40.30;;;;;;2337324;54;20939;-82
2022/04/22 09:33:47;;;;;;;6.68;4.78;;;20.70;40.20;;;;;;2572006;53;21462;-83
2022/04/22 09:45:04;;;;;;;9.10;5.85;;;20.80;39.10;;;;;;2582252;53;21023;-85
2022/04/22 09:47:32;;;;;;;9.15;6.32;;;20.80;39.10;;;;;;2338466;54;21935;-83
2022/04/22 09:49:59;;;;;;;8.57;5.90;;;20.80;39.00;;;;;;2582735;53;22020;-83
2022/04/22 09:52:29;;;;;;;6.93;5.05;;;20.80;39.10;;;;;;2336088;53;20995;-82
2022/04/22 09:54:57;;;;;;;9.10;6.20;;;20.80;39.50;;;;;;2566801;52;20975;-83
2022/04/22 09:58:32;;;;;;;9.68;6.45;;;20.90;39.60;;;;;;2340977;54;20915;-84
2022/04/22 10:01:01;;;;;;;7.55;5.32;;;21.00;39.20;;;;;;2583763;53;20931;-83
2022/04/22 10:03:28;;;;;;;7.43;5.47;;;21.00;39.20;;;;;;2340114;53;20980;-83
2022/04/22 10:05:56;;;;;;;9.85;7.03;;;21.10;39.20;;;;;;2575024;52;21440;-84
2022/04/22 10:08:23;;;;;;;9.75;6.90;;;21.10;38.90;;;;;;2575732;52;20933;-83
2022/04/22 10:11:01;;;;;;;8.20;6.22;;;21.10;38.70;;;;;;2572495;52;20948;-83
2022/04/22 10:13:33;;;;;;;8.38;6.40;;;21.10;38.50;;;;;;2571893;52;20961;-83
2022/04/22 10:16:00;;;;;;;9.10;6.93;;;21.20;38.70;;;;;;2342097;53;20943;-83
2022/04/22 10:18:27;;;;;;;10.13;7.20;;;21.30;38.70;;;;;;2579318;52;21074;-84
2022/04/22 10:20:54;;;;;;;8.13;6.15;;;21.10;38.50;;;;;;2324244;53;21684;-83
2022/04/22 10:23:21;;;;;;;9.65;6.30;;;21.30;38.60;;;;;;2586199;53;20928;-82
2022/04/22 10:25:50;;;;;;;9.35;5.90;;;21.10;38.30;;;;;;2574016;52;21513;-83
2022/04/22 10:28:16;;;;;;;8.93;6.35;;;21.40;39.20;;;;;;2579134;52;21016;-83
2022/04/22 10:30:43;;;;;;;9.00;6.37;;;21.40;38.60;;;;;;2571556;52;21442;-83
2022/04/22 10:33:10;;;;;;;7.60;6.03;;;21.50;38.90;;;;;;2569106;52;20927;-83
2022/04/22 10:35:41;;;;;;;8.27;5.87;;;21.60;39.10;;;;;;2581311;52;21015;-83
2022/04/22 10:38:25;;;;;;;8.15;6.62;;;21.60;39.20;;;;;;2339230;53;20967;-83
2022/04/22 10:40:52;;;;;;;8.48;6.45;;;21.70;39.00;;;;;;2580143;52;20924;-83
2022/04/22 10:43:19;;;;;;;8.88;6.45;;;21.80;38.60;;;;;;2580486;53;20999;-83
2022/04/22 10:48:30;;;;;;;10.02;6.40;;;21.90;38.40;;;;;;2539776;53;21439;-83
2022/04/22 10:51:03;;;;;;;9.02;6.62;;;22.00;38.50;;;;;;2562155;52;20925;-82
2022/04/22 10:53:29;;;;;;;;;;;22.10;38.60;;;;;;2540850;53;21000;-83
2022/04/22 10:56:30;;;;;;;10.75;6.78;;;22.10;38.50;;;;;;2568505;52;20179;-82
2022/04/22 10:59:27;;;;;;;9.60;6.32;;;22.10;38.10;;;;;;2569716;52;21104;-83
2022/04/22 11:01:53;;;;;;;12.65;6.43;;;22.10;38.20;;;;;;2554819;52;20959;-83
2022/04/22 11:04:29;;;;;;;7.65;5.65;;;22.20;38.50;;;;;;2555092;52;20980;-83
2022/04/22 11:06:58;;;;;;;7.93;6.15;;;22.30;38.90;;;;;;2322664;53;22009;-81
2022/04/22 11:09:29;;;;;;;9.00;6.72;;;22.40;38.80;;;;;;2551216;52;20947;-83
2022/04/22 11:11:57;;;;;;;8.43;5.70;;;22.40;38.50;;;;;;2580897;53;20900;-82
2022/04/22 11:14:25;;;;;;;9.65;6.65;;;22.50;38.50;;;;;;2581078;53;20920;-83
2022/04/22 11:16:55;;;;;;;9.43;6.43;;;22.60;38.30;;;;;;2580905;53;20936;-83
2022/04/22 11:19:24;;;;;;;7.57;5.43;;;22.60;38.10;;;;;;2567053;52;21387;-82
2022/04/22 11:21:58;;;;;;;8.25;5.65;;;22.70;38.40;;;;;;2567680;52;20991;-82
2022/04/22 11:24:27;;;;;;;8.85;6.60;;;22.70;38.40;;;;;;2580803;53;20971;-82
2022/04/22 11:27:03;;;;;;;7.87;5.93;;;22.80;38.40;;;;;;2581322;53;20944;-82
2022/04/22 11:29:29;;;;;;;8.73;6.62;;;22.90;38.20;;;;;;2581090;53;21427;-82
2022/04/22 11:32:18;;;;;;;12.55;6.20;;;23.00;38.00;;;;;;2337652;54;20983;-83
2022/04/22 11:41:32;;;;;;;9.43;6.62;;;23.10;37.60;;;;;;2580748;53;20944;-83
2022/04/22 11:44:04;;;;;;;9.30;6.55;;;23.30;37.50;;;;;;2583373;53;20932;-84
2022/04/22 11:46:30;;;;;;;12.13;7.20;;;23.30;37.40;;;;;;2586032;53;20923;-84
2022/04/22 11:48:57;;;;;;;8.43;6.65;;;23.20;37.00;;;;;;2585051;53;20920;-83
2022/04/22 11:51:25;;;;;;;8.15;6.18;;;23.10;37.00;;;;;;2585853;53;21003;-83
2022/04/22 11:53:52;;;;;;;7.80;5.78;;;23.10;37.10;;;;;;2556830;52;20987;-83
2022/04/22 11:56:19;;;;;;;8.45;6.40;;;23.10;37.30;;;;;;2586148;53;20976;-88
2022/04/22 11:58:51;;;;;;;8.50;6.20;;;23.10;37.30;;;;;;2323052;53;20986;-84
2022/04/22 12:06:54;;;;;;;7.70;5.90;;;23.20;37.50;;;;;;2585200;53;20932;-86
2022/04/22 12:09:20;;;;;;;8.65;6.03;;;23.30;37.40;;;;;;2583068;53;21107;-84
2022/04/22 12:11:50;;;;;;;8.88;6.70;;;23.30;37.10;;;;;;2580366;53;20932;-86
2022/04/22 12:14:24;;;;;;;8.93;5.55;;;23.40;36.90;;;;;;2554079;52;20944;-84
2022/04/22 12:17:00;;;;;;;7.03;5.03;;;23.40;36.90;;;;;;2579158;53;20972;-83
2022/04/22 12:19:27;;;;;;;7.72;5.35;;;23.40;37.20;;;;;;2338190;54;21012;-83
2022/04/22 12:21:53;;;;;;;8.30;6.05;;;23.50;37.30;;;;;;2552765;52;20972;-84
2022/04/22 12:24:23;;;;;;;6.05;4.80;;;23.50;37.10;;;;;;2578834;52;21778;-82
2022/04/22 12:26:51;;;;;;;7.07;5.50;;;23.60;37.00;;;;;;2580418;53;21462;-82
2022/04/22 12:29:20;;;;;;;6.75;5.30;;;23.70;36.80;;;;;;2577200;53;21314;-83
2022/04/22 12:31:52;;;;;;;7.40;5.05;;;23.70;36.80;;;;;;2557375;52;21011;-82
2022/04/22 12:34:40;;;;;;;6.62;5.22;;;23.80;36.90;;;;;;2583029;53;21059;-84
2022/04/22 12:37:07;;;;;;;7.55;5.50;;;23.80;36.70;;;;;;2584116;53;20952;-84
2022/04/22 12:39:38;;;;;;;6.85;4.87;;;23.90;37.00;;;;;;2582966;53;20916;-83
2022/04/22 12:42:06;;;;;;;6.93;4.90;;;24.00;37.00;;;;;;2584003;53;20956;-84
2022/04/22 12:44:34;;;;;;;6.82;4.72;;;24.00;36.70;;;;;;2583059;53;20968;-84
2022/04/22 12:52:44;;;;;;;6.50;4.78;;;24.30;36.50;;;;;;2576792;52;21088;-82
2022/04/22 12:55:12;;;;;;;6.62;4.00;;;24.40;36.70;;;;;;2568125;52;20959;-82
2022/04/22 12:57:41;;;;;;;5.45;3.67;;;24.50;36.70;;;;;;2570575;52;20939;-82
2022/04/22 13:00:20;;;;;;;9.90;4.50;;;24.50;36.70;;;;;;2583787;53;21451;-82
2022/04/22 13:03:03;;;;;;;6.80;4.57;;;24.70;36.60;;;;;;2547329;53;21277;-84
2022/04/22 13:05:31;;;;;;;8.27;5.43;;;24.80;36.40;;;;;;2339066;54;20927;-81
2022/04/22 13:08:10;;;;;;;7.68;4.78;;;24.80;35.90;;;;;;2582978;53;20964;-82
2022/04/22 13:10:37;;;;;;;6.30;4.37;;;24.90;35.60;;;;;;2582909;53;20975;-84
2022/04/22 13:13:07;;;;;;;5.70;3.50;;;24.90;35.80;;;;;;2582534;53;20916;-84
2022/04/22 13:15:33;;;;;;;6.50;4.32;;;25.00;36.00;;;;;;2571386;52;20959;-82
2022/04/22 13:18:00;;;;;;;5.70;4.25;;;25.00;35.80;;;;;;2569003;52;22002;-81
2022/04/22 13:20:27;;;;;;;6.68;3.97;;;25.10;35.60;;;;;;2339637;54;20975;-82
2022/04/22 13:22:53;;;;;;;5.35;4.10;;;25.10;35.50;;;;;;2581247;53;21407;-81
2022/04/22 13:25:21;;;;;;;5.40;3.72;;;25.20;35.50;;;;;;2581731;53;21550;-82
2022/04/22 13:27:47;;;;;;;9.48;4.30;;;25.20;35.50;;;;;;2581980;53;21398;-84
2022/04/22 13:30:17;;;;;;;6.90;4.12;;;25.20;35.50;;;;;;2339250;54;21059;-81
2022/04/22 13:32:44;;;;;;;6.40;4.53;;;25.30;35.90;;;;;;2583668;53;21971;-81
2022/04/22 13:35:12;;;;;;;6.20;3.72;;;25.40;35.00;;;;;;2584346;53;21863;-82
2022/04/22 13:37:39;;;;;;;7.12;4.25;;;25.40;34.80;;;;;;2584100;53;21365;-82
2022/04/22 13:40:06;;;;;;;6.30;3.92;;;25.30;34.60;;;;;;2585204;53;20916;-82
2022/04/22 13:42:33;;;;;;;4.93;3.53;;;25.40;34.60;;;;;;2584567;53;20880;-81
2022/04/22 13:53:15;;;;;;;5.30;3.50;;;25.60;35.20;;;;;;2583935;53;20920;-82
2022/04/22 13:55:41;;;;;;;6.00;3.75;;;25.60;35.00;;;;;;2584301;53;21386;-83
2022/04/22 13:58:08;;;;;;;6.12;3.67;;;25.70;34.70;;;;;;2570628;53;21107;-83
2022/04/22 14:00:35;;;;;;;7.47;3.78;;;25.70;34.50;;;;;;2570563;52;20940;-86
2022/04/22 14:03:02;;;;;;;5.32;3.58;;;25.70;34.20;;;;;;2586359;53;20967;-86
2022/04/22 14:05:28;;;;;;;5.40;3.62;;;25.70;34.20;;;;;;2586196;53;22003;-85
2022/04/22 14:07:54;;;;;;;5.32;3.55;;;25.70;34.00;;;;;;2555361;52;20959;-86
2022/04/22 14:10:21;;;;;;;6.12;3.75;;;25.70;34.10;;;;;;2561228;52;20971;-85
2022/04/22 14:12:48;;;;;;;5.57;3.58;;;25.70;34.20;;;;;;2579611;52;21047;-86
2022/04/22 14:15:14;;;;;;;5.18;3.90;;;25.70;34.10;;;;;;2566594;52;20952;-85
2022/04/22 14:17:43;;;;;;;5.05;3.40;;;25.80;33.90;;;;;;2587364;53;20944;-85
2022/04/22 14:20:12;;;;;;;5.30;3.35;;;25.80;33.80;;;;;;2339964;54;21007;-85
2022/04/22 14:22:38;;;;;;;7.68;4.30;;;25.80;33.80;;;;;;2585987;53;20956;-85